Capt. James Anderson — WDC3584 — position and weather

sailwx.info

Track history (hours):
 
Tides and Currents Weather Stations Pressure Air Temp Water Temp Dewpoint Dewpoint Depression Visibility Wind Speed Wind Dir Waves Ship Positions

Capt. James Anderson

Owner: AEP River Operations LLC, Chesterfield, MO. More information available from US FCC via Universal Licensing System and Coast Guard Vessel Documentation Center.

Last reported at 2015-May-24 14:25 UTC. Time now 2015-May-29 10:14 UTC.
Position N 38°56' W 084°52'.

Length 46 m; draft 3.5 m.

Type: Towing. MMSI: 367010580.

Date/timePositionNaut miles runAvg speedWind from/ knotsBaromVisibWave heightAir tempDewpointWater temp
2015-May-24 14:25N 38°56' W 084°52'8 3.9
2015-May-24 12:26N 39°03' W 084°54'3 0.7
2015-May-24 08:32N 39°05' W 084°51'5 4.6
2015-May-24 07:33N 39°08' W 084°46'4 3.7
2015-May-24 06:33N 39°07' W 084°42'1 0.6
2015-May-24 05:32N 39°06' W 084°41'0 0.0
2015-May-24 04:33N 39°06' W 084°41'0 0.0
2015-May-24 03:33N 39°06' W 084°41'3 2.5
2015-May-24 02:33N 39°05' W 084°38'4 4.0
2015-May-24 01:33N 39°06' W 084°33'4 3.8
2015-May-24 00:33N 39°07' W 084°29'3 3.2
2015-May-23 23:32N 39°05' W 084°26'4 3.8
2015-May-23 22:33N 39°02' W 084°22'4 4.3
2015-May-23 21:33N 38°60' W 084°18'4 4.4
2015-May-23 20:33N 38°55' W 084°16'4 4.4
2015-May-23 19:34N 38°51' W 084°14'4 3.8
2015-May-23 18:24N 38°48' W 084°11'1 1.1
2015-May-23 17:20N 38°48' W 084°09'11 2.9
2015-May-23 13:24N 38°46' W 083°55'3 4.0
2015-May-23 12:32N 38°44' W 083°51'4 3.9
2015-May-23 11:32N 38°42' W 083°47'  
Track history (hours):
 
Tides and Currents Weather Stations Pressure Air Temp Water Temp Dewpoint Dewpoint Depression Visibility Wind Speed Wind Dir Waves Ship Positions

Capt. James Anderson

Owner: AEP River Operations LLC, Chesterfield, MO. More information available from US FCC via Universal Licensing System and Coast Guard Vessel Documentation Center.

Last reported at 2015-May-24 14:25 UTC. Time now 2015-May-29 10:14 UTC.
Position N 38°56' W 084°52'.

Length 46 m; draft 3.5 m.

Type: Towing. MMSI: 367010580.

Date/timePositionNaut miles runAvg speedWind from/ knotsBaromVisibWave heightAir tempDewpointWater temp
2015-May-24 14:25N 38°56' W 084°52'8 3.9
2015-May-24 12:26N 39°03' W 084°54'3 0.7
2015-May-24 08:32N 39°05' W 084°51'5 4.6
2015-May-24 07:33N 39°08' W 084°46'4 3.7
2015-May-24 06:33N 39°07' W 084°42'1 0.6
2015-May-24 05:32N 39°06' W 084°41'0 0.0
2015-May-24 04:33N 39°06' W 084°41'0 0.0
2015-May-24 03:33N 39°06' W 084°41'3 2.5
2015-May-24 02:33N 39°05' W 084°38'4 4.0
2015-May-24 01:33N 39°06' W 084°33'4 3.8
2015-May-24 00:33N 39°07' W 084°29'3 3.2
2015-May-23 23:32N 39°05' W 084°26'4 3.8
2015-May-23 22:33N 39°02' W 084°22'4 4.3
2015-May-23 21:33N 38°60' W 084°18'4 4.4
2015-May-23 20:33N 38°55' W 084°16'4 4.4
2015-May-23 19:34N 38°51' W 084°14'4 3.8
2015-May-23 18:24N 38°48' W 084°11'1 1.1
2015-May-23 17:20N 38°48' W 084°09'11 2.9
2015-May-23 13:24N 38°46' W 083°55'3 4.0
2015-May-23 12:32N 38°44' W 083°51'4 3.9
2015-May-23 11:32N 38°42' W 083°47'  

Dump ship's entire track history